createdAt,value
2022-08-03T00:03:04.365Z,3.25
2022-08-03T00:06:55.975Z,2.85
2022-08-03T00:10:40.950Z,3.00
2022-08-03T00:14:32.933Z,3.35
2022-08-03T00:18:17.941Z,3.30
2022-08-03T00:22:10.092Z,3.10
2022-08-03T00:25:54.941Z,3.15
2022-08-03T00:30:00.113Z,3.80
2022-08-03T00:33:58.229Z,3.65
2022-08-03T00:37:42.970Z,3.30
2022-08-03T00:41:21.079Z,3.65
2022-08-03T00:45:05.948Z,3.85
2022-08-03T00:48:51.054Z,3.80
2022-08-03T00:52:35.961Z,3.38
2022-08-03T00:56:28.961Z,4.30
2022-08-03T01:00:23.968Z,3.85
2022-08-03T01:04:09.043Z,4.10
2022-08-03T01:08:30.960Z,3.77
2022-08-03T01:12:51.003Z,3.33
2022-08-03T01:16:39.893Z,3.30
2022-08-03T01:20:35.990Z,3.30
2022-08-03T01:24:53.161Z,3.47
2022-08-03T01:29:06.949Z,3.53
2022-08-03T01:33:00.540Z,3.53
2022-08-03T01:36:56.964Z,3.70
2022-08-03T01:40:43.976Z,3.78
2022-08-03T01:44:31.039Z,3.50
2022-08-03T01:48:18.983Z,3.85
2022-08-03T01:52:12.005Z,3.42
2022-08-03T01:56:12.031Z,3.40
2022-08-03T02:00:08.017Z,4.10
2022-08-03T02:04:00.005Z,3.20
2022-08-03T02:07:54.964Z,2.72
2022-08-03T02:11:37.140Z,3.42
2022-08-03T02:15:30.004Z,3.60
2022-08-03T02:19:17.986Z,2.95
2022-08-03T02:23:17.046Z,3.27
2022-08-03T02:27:19.971Z,3.03
2022-08-03T02:31:18.008Z,3.03
2022-08-03T02:35:07.028Z,2.45
2022-08-03T02:39:10.985Z,2.83
2022-08-03T02:42:59.477Z,3.07
2022-08-03T02:46:57.032Z,3.17
2022-08-03T02:50:43.035Z,3.08
2022-08-03T02:54:37.057Z,3.17
2022-08-03T02:58:18.772Z,2.85
2022-08-03T03:02:13.191Z,2.57
2022-08-03T03:05:58.018Z,2.85
2022-08-03T03:09:46.406Z,2.58
2022-08-03T03:13:34.995Z,3.08
2022-08-03T03:17:29.023Z,2.88
2022-08-03T03:21:16.028Z,3.90
2022-08-03T03:25:10.012Z,2.67
2022-08-03T03:28:48.470Z,2.70
2022-08-03T03:32:44.029Z,2.58
2022-08-03T03:36:36.017Z,2.93
2022-08-03T03:40:22.053Z,2.93
2022-08-03T03:44:14.023Z,2.67
2022-08-03T03:47:59.051Z,2.92
2022-08-03T03:51:51.054Z,3.00
2022-08-03T03:55:57.769Z,2.83
2022-08-03T03:59:50.055Z,3.23
2022-08-03T04:03:42.094Z,2.78
2022-08-03T04:07:46.070Z,2.85
2022-08-03T04:11:35.090Z,3.15
2022-08-03T04:15:21.077Z,2.83
2022-08-03T04:19:21.143Z,2.80
2022-08-03T04:23:02.827Z,2.78
2022-08-03T04:26:58.085Z,3.10
2022-08-03T04:30:47.089Z,2.65
2022-08-03T04:34:25.498Z,2.70
2022-08-03T04:38:21.041Z,2.97
2022-08-03T04:42:13.073Z,2.80
2022-08-03T04:46:06.072Z,3.00
2022-08-03T04:49:58.088Z,2.70
2022-08-03T04:53:44.071Z,3.23
2022-08-03T04:57:43.063Z,3.23
2022-08-03T05:01:42.250Z,3.67
2022-08-03T05:05:36.245Z,2.90
2022-08-03T05:09:50.735Z,3.75
2022-08-03T05:13:38.095Z,3.40
2022-08-03T05:17:30.132Z,2.65
2022-08-03T05:21:09.648Z,2.63
2022-08-03T05:25:01.106Z,3.08
2022-08-03T05:28:50.913Z,3.10
2022-08-03T05:32:43.100Z,2.70
2022-08-03T05:36:28.091Z,3.00
2022-08-03T05:40:21.093Z,2.90
2022-08-03T05:44:06.113Z,2.90
2022-08-03T05:47:52.284Z,3.67
2022-08-03T05:51:37.106Z,2.90
2022-08-03T05:55:29.132Z,2.90
2022-08-03T05:59:37.600Z,2.47
2022-08-03T06:03:17.276Z,2.53
2022-08-03T06:07:13.132Z,2.80
2022-08-03T06:10:51.200Z,3.30
2022-08-03T06:14:43.104Z,2.85
2022-08-03T06:18:22.314Z,3.10
2022-08-03T06:22:14.173Z,2.88
2022-08-03T06:26:00.127Z,2.67
2022-08-03T06:29:52.153Z,2.90
2022-08-03T06:34:31.653Z,2.85
2022-08-03T06:37:59.120Z,3.53
2022-08-03T06:41:59.181Z,2.60
2022-08-03T06:45:51.167Z,3.03
2022-08-03T06:49:36.197Z,2.75
2022-08-03T06:53:35.124Z,2.80
2022-08-03T06:57:34.134Z,2.63
2022-08-03T07:01:26.154Z,2.70
2022-08-03T07:05:04.317Z,2.93
2022-08-03T07:08:59.538Z,2.63
2022-08-03T07:12:55.767Z,2.33
2022-08-03T07:16:41.185Z,2.65
2022-08-03T07:20:28.872Z,2.47
2022-08-03T07:24:17.220Z,2.50
2022-08-03T07:28:09.191Z,2.90
2022-08-03T07:31:47.505Z,2.42
2022-08-03T07:35:39.175Z,2.53
2022-08-03T07:39:24.180Z,2.70
2022-08-03T07:43:09.405Z,2.83
2022-08-03T07:46:54.163Z,2.83
2022-08-03T07:50:48.172Z,2.60
2022-08-03T07:54:26.450Z,2.65
2022-08-03T07:58:24.376Z,2.80
2022-08-03T08:02:09.202Z,3.17
2022-08-03T08:06:02.222Z,3.17
2022-08-03T08:09:40.485Z,3.13
2022-08-03T08:13:32.207Z,3.35
2022-08-03T08:17:17.195Z,2.60
2022-08-03T08:21:10.198Z,3.00
2022-08-03T08:24:49.195Z,2.92
2022-08-03T08:28:43.226Z,3.20
2022-08-03T08:32:28.206Z,3.00
2022-08-03T08:36:15.374Z,2.63
2022-08-03T08:40:03.210Z,3.65
2022-08-03T08:43:59.971Z,3.20
2022-08-03T08:47:58.242Z,3.33
2022-08-03T08:52:00.576Z,3.80
2022-08-03T08:55:56.927Z,3.30
2022-08-03T08:59:58.246Z,3.35
2022-08-03T09:03:50.176Z,2.50
2022-08-03T09:07:35.219Z,3.20
2022-08-03T09:12:00.942Z,3.47
2022-08-03T09:15:59.083Z,2.90
2022-08-03T09:20:03.743Z,2.93
2022-08-03T09:24:02.870Z,5.72
2022-08-03T09:27:50.440Z,3.30
2022-08-03T09:31:50.351Z,3.45
2022-08-03T09:35:53.513Z,4.20
2022-08-03T09:39:44.227Z,3.05
2022-08-03T09:43:36.236Z,3.58
2022-08-03T09:47:36.242Z,3.40
2022-08-03T09:51:33.358Z,3.47
2022-08-03T09:56:34.126Z,3.55
2022-08-03T09:59:43.231Z,2.38
2022-08-03T10:03:47.005Z,2.80
2022-08-03T10:07:48.339Z,3.33
2022-08-03T10:11:42.419Z,3.00
2022-08-03T10:16:23.663Z,2.90
2022-08-03T10:19:47.246Z,2.67
2022-08-03T10:23:41.281Z,2.77
2022-08-03T10:27:28.240Z,2.60
2022-08-03T10:31:28.261Z,2.97
2022-08-03T10:35:26.263Z,2.87
2022-08-03T10:39:16.072Z,2.50
2022-08-03T10:43:25.262Z,2.63
2022-08-03T10:47:25.287Z,2.28
2022-08-03T10:51:17.351Z,2.38
2022-08-03T10:55:47.250Z,2.70
2022-08-03T10:59:53.253Z,2.83
2022-08-03T11:03:39.441Z,2.63
2022-08-03T11:07:31.280Z,2.65
2022-08-03T11:11:33.146Z,2.60
2022-08-03T11:15:18.268Z,2.42
2022-08-03T11:19:08.411Z,2.45
2022-08-03T11:22:58.293Z,1.83
2022-08-03T11:26:50.296Z,2.63
2022-08-03T11:30:42.333Z,2.67
2022-08-03T11:34:29.329Z,2.53
2022-08-03T11:38:21.291Z,2.43
2022-08-03T11:41:59.389Z,2.87
2022-08-03T11:46:05.301Z,2.25
2022-08-03T11:49:51.359Z,2.90
2022-08-03T11:53:52.023Z,3.00
2022-08-03T11:59:00.851Z,2.83
2022-08-03T12:01:48.359Z,2.65
2022-08-03T12:05:51.335Z,2.95
2022-08-03T12:09:30.450Z,2.83
2022-08-03T12:14:44.635Z,2.47
2022-08-03T12:17:27.320Z,2.60
2022-08-03T12:21:30.351Z,3.15
2022-08-03T12:25:39.321Z,2.43
2022-08-03T12:29:35.366Z,3.20
2022-08-03T12:33:34.328Z,3.40
2022-08-03T12:37:22.662Z,3.00
2022-08-03T12:41:25.362Z,2.87
2022-08-03T12:45:34.347Z,3.38
2022-08-03T12:49:30.500Z,2.70
2022-08-03T12:53:16.381Z,2.75
2022-08-03T12:57:15.662Z,3.20
2022-08-03T13:01:05.054Z,2.92
2022-08-03T13:05:03.332Z,2.88
2022-08-03T13:08:42.814Z,2.73
2022-08-03T13:12:40.406Z,3.23
2022-08-03T13:16:25.357Z,3.50
2022-08-03T13:20:18.390Z,3.08
2022-08-03T13:24:17.394Z,3.30
2022-08-03T13:28:14.335Z,3.37
2022-08-03T13:31:59.356Z,3.78
2022-08-03T13:35:58.361Z,3.80
2022-08-03T13:39:59.444Z,3.70
2022-08-03T13:43:45.543Z,3.38
2022-08-03T13:47:38.382Z,2.92
2022-08-03T13:51:22.367Z,3.33
2022-08-03T13:55:15.379Z,4.20
2022-08-03T13:59:00.500Z,3.17
2022-08-03T14:03:06.713Z,3.97
2022-08-03T14:07:04.379Z,3.90
2022-08-03T14:10:52.439Z,3.55
2022-08-03T14:14:44.564Z,3.33
2022-08-03T14:18:33.814Z,3.40
2022-08-03T14:22:25.515Z,3.92
2022-08-03T14:26:03.480Z,3.50
2022-08-03T14:29:55.408Z,2.72
2022-08-03T14:33:40.457Z,2.80
2022-08-03T14:37:32.435Z,3.70
2022-08-03T14:41:12.151Z,3.42
2022-08-03T14:45:20.100Z,3.37
2022-08-03T14:50:30.062Z,3.42
2022-08-03T14:53:27.415Z,3.38
2022-08-03T14:57:19.554Z,3.10
2022-08-03T15:02:03.486Z,3.63
2022-08-03T15:05:21.493Z,3.17
2022-08-03T15:09:22.438Z,3.05
2022-08-03T15:13:11.433Z,4.13
2022-08-03T15:16:57.456Z,4.40
2022-08-03T15:20:57.428Z,3.75
2022-08-03T15:24:49.447Z,2.60
2022-08-03T15:28:34.448Z,3.67
2022-08-03T15:32:36.476Z,3.20
2022-08-03T15:36:28.472Z,3.45
2022-08-03T15:40:13.429Z,2.83
2022-08-03T15:44:12.452Z,3.95
2022-08-03T15:48:04.457Z,3.20
2022-08-03T15:51:49.465Z,3.03
2022-08-03T15:55:41.489Z,3.03
2022-08-03T15:59:22.292Z,4.15
2022-08-03T16:03:14.484Z,3.30
2022-08-03T16:06:59.468Z,2.63
2022-08-03T16:11:00.463Z,2.70
2022-08-03T16:14:53.669Z,2.47
2022-08-03T16:18:39.502Z,2.10
2022-08-03T16:22:38.479Z,2.67
2022-08-03T16:26:30.498Z,2.55
2022-08-03T16:30:23.524Z,2.75
2022-08-03T16:34:22.483Z,2.70
2022-08-03T16:38:19.065Z,2.83
2022-08-03T16:42:04.688Z,2.58
2022-08-03T16:45:56.481Z,3.50
2022-08-03T16:49:54.219Z,3.30
2022-08-03T16:54:05.594Z,3.30
2022-08-03T16:57:59.684Z,3.10
2022-08-03T17:02:00.564Z,3.03
2022-08-03T17:05:52.487Z,3.40
2022-08-03T17:09:39.098Z,3.20
2022-08-03T17:13:39.484Z,3.15
2022-08-03T17:17:53.477Z,2.95
2022-08-03T17:21:50.789Z,3.03
2022-08-03T17:26:01.541Z,3.20
2022-08-03T17:29:49.505Z,3.30
2022-08-03T17:33:44.538Z,2.75
2022-08-03T17:37:58.516Z,2.97
2022-08-03T17:41:53.536Z,2.77
2022-08-03T17:45:51.991Z,3.28
2022-08-03T17:49:40.203Z,3.30
2022-08-03T17:53:30.519Z,2.42
2022-08-03T17:58:02.003Z,2.33
2022-08-03T18:02:39.226Z,2.47
2022-08-03T18:06:56.338Z,2.22
2022-08-03T18:10:50.063Z,2.58
2022-08-03T18:15:01.049Z,2.57
2022-08-03T18:19:00.626Z,2.58
2022-08-03T18:22:47.679Z,2.42
2022-08-03T18:26:40.564Z,3.17
2022-08-03T18:30:34.586Z,2.83
2022-08-03T18:34:53.406Z,2.47
2022-08-03T18:38:39.572Z,2.60
2022-08-03T18:42:38.631Z,2.50
2022-08-03T18:46:44.592Z,2.70
2022-08-03T18:50:40.622Z,3.00
2022-08-03T18:55:07.340Z,2.65
2022-08-03T18:59:32.622Z,3.38
2022-08-03T19:03:42.779Z,2.97
2022-08-03T19:07:25.676Z,2.80
2022-08-03T19:11:28.271Z,2.97
2022-08-03T19:15:36.081Z,3.08
2022-08-03T19:19:44.444Z,3.42
2022-08-03T19:23:34.133Z,2.92
2022-08-03T19:27:20.599Z,3.40
2022-08-03T19:31:19.589Z,3.07
2022-08-03T19:35:13.224Z,3.13
2022-08-03T19:38:58.667Z,3.13
2022-08-03T19:42:48.572Z,2.72
2022-08-03T19:46:43.621Z,3.53
2022-08-03T19:50:22.191Z,3.50
2022-08-03T19:54:15.585Z,3.50
2022-08-03T19:58:02.685Z,3.10
2022-08-03T20:01:50.353Z,3.17
2022-08-03T20:05:51.816Z,3.27
2022-08-03T20:09:38.683Z,2.83
2022-08-03T20:13:44.661Z,2.67
2022-08-03T20:17:55.254Z,2.70
2022-08-03T20:21:44.594Z,3.05
2022-08-03T20:25:57.382Z,3.73
2022-08-03T20:30:06.618Z,3.10
2022-08-03T20:33:54.609Z,3.50
2022-08-03T20:37:40.633Z,3.05
2022-08-03T20:41:33.667Z,3.60
2022-08-03T20:45:12.987Z,3.30
2022-08-03T20:49:07.636Z,3.40
2022-08-03T20:52:49.809Z,3.53
2022-08-03T20:56:42.639Z,3.08
2022-08-03T21:00:41.618Z,3.60
2022-08-03T21:04:28.626Z,3.33
2022-08-03T21:08:13.760Z,3.55
2022-08-03T21:12:04.654Z,3.05
2022-08-03T21:16:14.643Z,3.22
2022-08-03T21:19:55.046Z,3.13
2022-08-03T21:23:51.655Z,3.30
2022-08-03T21:27:38.703Z,3.50
2022-08-03T21:31:26.550Z,3.53
2022-08-03T21:35:13.688Z,3.35
2022-08-03T21:39:05.758Z,3.70
2022-08-03T21:42:51.662Z,3.73
2022-08-03T21:46:40.753Z,3.20
2022-08-03T21:50:25.646Z,3.10
2022-08-03T21:54:18.697Z,3.25
2022-08-03T21:58:00.192Z,3.10
2022-08-03T22:01:55.328Z,3.03
2022-08-03T22:05:44.297Z,3.15
2022-08-03T22:09:28.762Z,3.42
2022-08-03T22:13:13.688Z,3.25
2022-08-03T22:17:06.447Z,3.60
2022-08-03T22:20:59.676Z,3.33
2022-08-03T22:24:44.900Z,3.38
2022-08-03T22:28:31.691Z,3.30
2022-08-03T22:32:23.681Z,3.53
2022-08-03T22:36:10.791Z,3.05
2022-08-03T22:39:55.772Z,3.57
2022-08-03T22:43:42.735Z,3.38
2022-08-03T22:47:35.733Z,3.47
2022-08-03T22:51:21.745Z,3.55
2022-08-03T22:55:18.847Z,4.10
2022-08-03T22:59:40.599Z,3.40
2022-08-03T23:03:17.867Z,4.30
2022-08-03T23:06:58.000Z,4.53
2022-08-03T23:10:49.695Z,4.35
2022-08-03T23:14:36.760Z,4.40
2022-08-03T23:18:37.327Z,4.67
2022-08-03T23:22:30.868Z,3.83
2022-08-03T23:26:09.878Z,3.95
2022-08-03T23:30:02.799Z,4.40
2022-08-03T23:33:44.795Z,4.35
2022-08-03T23:38:04.450Z,5.40
2022-08-03T23:41:43.782Z,4.63
2022-08-03T23:45:42.815Z,4.90
2022-08-03T23:49:34.746Z,5.15
2022-08-03T23:53:39.712Z,5.15
2022-08-03T23:57:52.738Z,4.97
